sensor_id;sensor_type;location;lat;lon;timestamp;temperature;humidity
59651;DHT22;45954;49.768;8.636;2022-08-01T00:01:23;23.30;82.70
59651;DHT22;45954;49.768;8.636;2022-08-01T00:03:49;23.20;82.80
59651;DHT22;45954;49.768;8.636;2022-08-01T00:06:15;23.20;83.60
59651;DHT22;45954;49.768;8.636;2022-08-01T00:08:40;23.40;83.60
59651;DHT22;45954;49.768;8.636;2022-08-01T00:11:06;23.50;83.40
59651;DHT22;45954;49.768;8.636;2022-08-01T00:13:35;23.50;83.30
59651;DHT22;45954;49.768;8.636;2022-08-01T00:16:01;23.40;83.40
59651;DHT22;45954;49.768;8.636;2022-08-01T00:18:27;23.40;83.30
59651;DHT22;45954;49.768;8.636;2022-08-01T00:20:53;23.40;83.70
59651;DHT22;45954;49.768;8.636;2022-08-01T00:23:18;23.40;83.50
59651;DHT22;45954;49.768;8.636;2022-08-01T00:25:44;23.50;83.80
59651;DHT22;45954;49.768;8.636;2022-08-01T00:28:10;23.30;84.30
59651;DHT22;45954;49.768;8.636;2022-08-01T00:30:36;23.20;84.40
59651;DHT22;45954;49.768;8.636;2022-08-01T00:33:03;23.00;84.70
59651;DHT22;45954;49.768;8.636;2022-08-01T00:35:28;22.80;85.60
59651;DHT22;45954;49.768;8.636;2022-08-01T00:37:54;23.00;85.10
59651;DHT22;45954;49.768;8.636;2022-08-01T00:40:21;23.00;85.30
59651;DHT22;45954;49.768;8.636;2022-08-01T00:42:47;22.90;86.00
59651;DHT22;45954;49.768;8.636;2022-08-01T00:45:13;23.00;85.60
59651;DHT22;45954;49.768;8.636;2022-08-01T00:47:39;22.90;85.80
59651;DHT22;45954;49.768;8.636;2022-08-01T00:50:05;23.00;85.50
59651;DHT22;45954;49.768;8.636;2022-08-01T00:52:33;23.00;85.70
59651;DHT22;45954;49.768;8.636;2022-08-01T00:55:00;23.10;85.90
59651;DHT22;45954;49.768;8.636;2022-08-01T00:57:26;23.00;86.20
59651;DHT22;45954;49.768;8.636;2022-08-01T00:59:52;23.00;86.00
59651;DHT22;45954;49.768;8.636;2022-08-01T01:02:18;23.00;86.10
59651;DHT22;45954;49.768;8.636;2022-08-01T01:04:44;23.00;85.90
59651;DHT22;45954;49.768;8.636;2022-08-01T01:07:32;23.20;86.10
59651;DHT22;45954;49.768;8.636;2022-08-01T01:10:34;23.20;86.30
59651;DHT22;45954;49.768;8.636;2022-08-01T01:13:43;23.00;87.00
59651;DHT22;45954;49.768;8.636;2022-08-01T01:16:15;23.10;86.70
59651;DHT22;45954;49.768;8.636;2022-08-01T01:18:48;23.20;86.20
59651;DHT22;45954;49.768;8.636;2022-08-01T01:27:16;23.10;86.60
59651;DHT22;45954;49.768;8.636;2022-08-01T01:29:56;23.10;87.00
59651;DHT22;45954;49.768;8.636;2022-08-01T01:35:05;23.10;87.30
59651;DHT22;45954;49.768;8.636;2022-08-01T01:37:34;23.00;87.10
59651;DHT22;45954;49.768;8.636;2022-08-01T01:40:05;23.00;87.30
59651;DHT22;45954;49.768;8.636;2022-08-01T01:42:34;22.90;87.00
59651;DHT22;45954;49.768;8.636;2022-08-01T01:45:04;22.80;88.10
59651;DHT22;45954;49.768;8.636;2022-08-01T01:47:33;23.00;87.50
59651;DHT22;45954;49.768;8.636;2022-08-01T01:50:00;23.10;87.40
59651;DHT22;45954;49.768;8.636;2022-08-01T01:52:29;23.20;87.30
59651;DHT22;45954;49.768;8.636;2022-08-01T01:54:57;23.10;87.20
59651;DHT22;45954;49.768;8.636;2022-08-01T01:57:26;23.10;87.30
59651;DHT22;45954;49.768;8.636;2022-08-01T01:59:55;23.20;87.30
59651;DHT22;45954;49.768;8.636;2022-08-01T02:02:24;23.30;87.10
59651;DHT22;45954;49.768;8.636;2022-08-01T02:04:51;23.20;87.10
59651;DHT22;45954;49.768;8.636;2022-08-01T02:07:22;23.00;87.70
59651;DHT22;45954;49.768;8.636;2022-08-01T02:09:52;23.00;88.00
59651;DHT22;45954;49.768;8.636;2022-08-01T02:12:19;23.00;87.70
59651;DHT22;45954;49.768;8.636;2022-08-01T02:14:49;23.00;87.90
59651;DHT22;45954;49.768;8.636;2022-08-01T02:17:18;23.00;88.00
59651;DHT22;45954;49.768;8.636;2022-08-01T02:19:46;23.00;87.90
59651;DHT22;45954;49.768;8.636;2022-08-01T02:22:31;22.90;88.20
59651;DHT22;45954;49.768;8.636;2022-08-01T02:25:10;22.80;88.30
59651;DHT22;45954;49.768;8.636;2022-08-01T02:27:46;22.70;88.70
59651;DHT22;45954;49.768;8.636;2022-08-01T02:30:19;22.70;88.80
59651;DHT22;45954;49.768;8.636;2022-08-01T02:32:49;22.60;88.90
59651;DHT22;45954;49.768;8.636;2022-08-01T02:35:27;22.60;89.40
59651;DHT22;45954;49.768;8.636;2022-08-01T02:37:57;22.60;89.40
59651;DHT22;45954;49.768;8.636;2022-08-01T02:40:26;22.60;89.50
59651;DHT22;45954;49.768;8.636;2022-08-01T02:42:56;22.60;89.60
59651;DHT22;45954;49.768;8.636;2022-08-01T02:45:25;22.50;89.80
59651;DHT22;45954;49.768;8.636;2022-08-01T02:47:59;22.50;89.60
59651;DHT22;45954;49.768;8.636;2022-08-01T02:50:29;22.60;89.40
59651;DHT22;45954;49.768;8.636;2022-08-01T02:52:59;22.50;89.60
59651;DHT22;45954;49.768;8.636;2022-08-01T02:55:28;22.40;90.00
59651;DHT22;45954;49.768;8.636;2022-08-01T02:57:55;22.50;90.00
59651;DHT22;45954;49.768;8.636;2022-08-01T03:00:23;22.40;90.20
59651;DHT22;45954;49.768;8.636;2022-08-01T03:02:52;22.30;90.20
59651;DHT22;45954;49.768;8.636;2022-08-01T03:05:20;22.30;90.50
59651;DHT22;45954;49.768;8.636;2022-08-01T03:07:47;22.40;90.30
59651;DHT22;45954;49.768;8.636;2022-08-01T03:10:16;22.40;90.20
59651;DHT22;45954;49.768;8.636;2022-08-01T03:12:45;22.50;90.20
59651;DHT22;45954;49.768;8.636;2022-08-01T03:15:14;22.60;90.10
59651;DHT22;45954;49.768;8.636;2022-08-01T03:17:44;22.70;90.30
59651;DHT22;45954;49.768;8.636;2022-08-01T03:20:14;22.70;90.10
59651;DHT22;45954;49.768;8.636;2022-08-01T03:22:43;22.50;90.60
59651;DHT22;45954;49.768;8.636;2022-08-01T03:25:13;22.50;90.50
59651;DHT22;45954;49.768;8.636;2022-08-01T03:27:43;22.60;90.40
59651;DHT22;45954;49.768;8.636;2022-08-01T03:30:12;22.60;90.40
59651;DHT22;45954;49.768;8.636;2022-08-01T03:32:39;22.50;90.60
59651;DHT22;45954;49.768;8.636;2022-08-01T03:35:05;22.50;90.60
59651;DHT22;45954;49.768;8.636;2022-08-01T03:37:42;22.30;90.80
59651;DHT22;45954;49.768;8.636;2022-08-01T03:43:28;22.40;90.90
59651;DHT22;45954;49.768;8.636;2022-08-01T03:46:06;22.50;90.80
59651;DHT22;45954;49.768;8.636;2022-08-01T03:48:39;22.50;90.70
59651;DHT22;45954;49.768;8.636;2022-08-01T03:51:09;22.50;90.80
59651;DHT22;45954;49.768;8.636;2022-08-01T03:53:37;22.60;90.90
59651;DHT22;45954;49.768;8.636;2022-08-01T03:56:08;22.70;90.90
59651;DHT22;45954;49.768;8.636;2022-08-01T03:58:39;22.60;90.80
59651;DHT22;45954;49.768;8.636;2022-08-01T04:01:06;22.60;90.90
59651;DHT22;45954;49.768;8.636;2022-08-01T04:03:33;22.70;91.00
59651;DHT22;45954;49.768;8.636;2022-08-01T04:05:59;22.70;90.80
59651;DHT22;45954;49.768;8.636;2022-08-01T04:08:39;22.70;90.90
59651;DHT22;45954;49.768;8.636;2022-08-01T04:11:08;22.60;90.90
59651;DHT22;45954;49.768;8.636;2022-08-01T04:13:35;22.50;90.90
59651;DHT22;45954;49.768;8.636;2022-08-01T04:16:01;22.60;91.00
59651;DHT22;45954;49.768;8.636;2022-08-01T04:18:27;22.70;91.00
59651;DHT22;45954;49.768;8.636;2022-08-01T04:20:53;22.70;90.90
59651;DHT22;45954;49.768;8.636;2022-08-01T04:23:22;22.70;90.70
59651;DHT22;45954;49.768;8.636;2022-08-01T04:25:52;22.80;90.70
59651;DHT22;45954;49.768;8.636;2022-08-01T04:28:19;22.30;91.20
59651;DHT22;45954;49.768;8.636;2022-08-01T04:30:50;22.40;91.50
59651;DHT22;45954;49.768;8.636;2022-08-01T04:33:20;22.50;91.10
59651;DHT22;45954;49.768;8.636;2022-08-01T04:35:48;22.50;91.10
59651;DHT22;45954;49.768;8.636;2022-08-01T04:38:19;22.50;91.20
59651;DHT22;45954;49.768;8.636;2022-08-01T04:40:47;22.30;91.60
59651;DHT22;45954;49.768;8.636;2022-08-01T04:43:14;22.20;91.60
59651;DHT22;45954;49.768;8.636;2022-08-01T04:45:42;21.90;92.10
59651;DHT22;45954;49.768;8.636;2022-08-01T04:48:10;22.00;92.10
59651;DHT22;45954;49.768;8.636;2022-08-01T04:50:36;22.00;91.90
59651;DHT22;45954;49.768;8.636;2022-08-01T04:53:03;22.20;92.10
59651;DHT22;45954;49.768;8.636;2022-08-01T04:55:29;22.30;91.80
59651;DHT22;45954;49.768;8.636;2022-08-01T04:57:56;22.40;91.50
59651;DHT22;45954;49.768;8.636;2022-08-01T05:00:22;22.50;91.50
59651;DHT22;45954;49.768;8.636;2022-08-01T05:02:48;22.60;91.60
59651;DHT22;45954;49.768;8.636;2022-08-01T05:05:14;22.60;91.20
59651;DHT22;45954;49.768;8.636;2022-08-01T05:07:40;22.40;91.50
59651;DHT22;45954;49.768;8.636;2022-08-01T05:10:06;22.60;91.70
59651;DHT22;45954;49.768;8.636;2022-08-01T05:12:32;22.70;91.30
59651;DHT22;45954;49.768;8.636;2022-08-01T05:14:59;22.80;91.50
59651;DHT22;45954;49.768;8.636;2022-08-01T05:17:25;22.80;91.60
59651;DHT22;45954;49.768;8.636;2022-08-01T05:19:51;22.70;91.10
59651;DHT22;45954;49.768;8.636;2022-08-01T05:22:17;22.70;91.30
59651;DHT22;45954;49.768;8.636;2022-08-01T05:24:43;22.80;91.20
59651;DHT22;45954;49.768;8.636;2022-08-01T05:27:09;22.80;91.20
59651;DHT22;45954;49.768;8.636;2022-08-01T05:29:35;22.90;91.00
59651;DHT22;45954;49.768;8.636;2022-08-01T05:32:01;22.90;91.10
59651;DHT22;45954;49.768;8.636;2022-08-01T05:34:28;23.20;91.00
59651;DHT22;45954;49.768;8.636;2022-08-01T05:36:54;23.00;90.90
59651;DHT22;45954;49.768;8.636;2022-08-01T05:39:20;22.80;91.10
59651;DHT22;45954;49.768;8.636;2022-08-01T05:41:46;22.70;91.30
59651;DHT22;45954;49.768;8.636;2022-08-01T05:44:11;22.70;91.40
59651;DHT22;45954;49.768;8.636;2022-08-01T05:46:38;22.90;91.10
59651;DHT22;45954;49.768;8.636;2022-08-01T05:49:05;23.10;91.10
59651;DHT22;45954;49.768;8.636;2022-08-01T05:51:31;22.90;91.00
59651;DHT22;45954;49.768;8.636;2022-08-01T05:53:58;22.70;91.50
59651;DHT22;45954;49.768;8.636;2022-08-01T05:56:24;22.90;91.20
59651;DHT22;45954;49.768;8.636;2022-08-01T05:58:50;22.60;91.30
59651;DHT22;45954;49.768;8.636;2022-08-01T06:01:17;22.20;91.90
59651;DHT22;45954;49.768;8.636;2022-08-01T06:03:45;22.10;92.20
59651;DHT22;45954;49.768;8.636;2022-08-01T06:06:11;21.90;92.40
59651;DHT22;45954;49.768;8.636;2022-08-01T06:08:37;22.00;92.50
59651;DHT22;45954;49.768;8.636;2022-08-01T06:11:03;21.80;92.60
59651;DHT22;45954;49.768;8.636;2022-08-01T06:13:29;21.80;92.80
59651;DHT22;45954;49.768;8.636;2022-08-01T06:15:55;21.90;92.90
59651;DHT22;45954;49.768;8.636;2022-08-01T06:18:21;22.20;92.50
59651;DHT22;45954;49.768;8.636;2022-08-01T06:20:48;22.30;92.40
59651;DHT22;45954;49.768;8.636;2022-08-01T06:23:14;22.40;92.30
59651;DHT22;45954;49.768;8.636;2022-08-01T06:25:42;22.90;92.10
59651;DHT22;45954;49.768;8.636;2022-08-01T06:28:09;23.20;91.60
59651;DHT22;45954;49.768;8.636;2022-08-01T06:30:35;23.50;91.20
59651;DHT22;45954;49.768;8.636;2022-08-01T06:33:00;23.40;91.10
59651;DHT22;45954;49.768;8.636;2022-08-01T06:35:27;23.60;91.30
59651;DHT22;45954;49.768;8.636;2022-08-01T06:37:55;23.60;91.00
59651;DHT22;45954;49.768;8.636;2022-08-01T06:40:22;23.40;91.10
59651;DHT22;45954;49.768;8.636;2022-08-01T06:42:48;22.80;91.40
59651;DHT22;45954;49.768;8.636;2022-08-01T06:45:15;22.70;91.80
59651;DHT22;45954;49.768;8.636;2022-08-01T06:47:43;22.90;91.30
59651;DHT22;45954;49.768;8.636;2022-08-01T06:50:10;23.10;91.40
59651;DHT22;45954;49.768;8.636;2022-08-01T06:52:37;23.30;91.00
59651;DHT22;45954;49.768;8.636;2022-08-01T06:55:04;23.50;91.00
59651;DHT22;45954;49.768;8.636;2022-08-01T06:57:31;23.50;91.10
59651;DHT22;45954;49.768;8.636;2022-08-01T06:59:57;23.70;90.80
59651;DHT22;45954;49.768;8.636;2022-08-01T07:02:23;23.80;90.60
59651;DHT22;45954;49.768;8.636;2022-08-01T07:04:49;23.20;90.90
59651;DHT22;45954;49.768;8.636;2022-08-01T07:07:15;23.10;91.30
59651;DHT22;45954;49.768;8.636;2022-08-01T07:09:40;23.40;90.90
59651;DHT22;45954;49.768;8.636;2022-08-01T07:12:08;22.80;91.30
59651;DHT22;45954;49.768;8.636;2022-08-01T07:14:34;22.80;91.60
59651;DHT22;45954;49.768;8.636;2022-08-01T07:17:00;23.00;91.50
59651;DHT22;45954;49.768;8.636;2022-08-01T07:19:26;23.40;91.10
59651;DHT22;45954;49.768;8.636;2022-08-01T07:21:52;23.60;91.10
59651;DHT22;45954;49.768;8.636;2022-08-01T07:24:19;23.80;90.60
59651;DHT22;45954;49.768;8.636;2022-08-01T07:26:47;23.80;90.50
59651;DHT22;45954;49.768;8.636;2022-08-01T07:29:13;24.10;90.20
59651;DHT22;45954;49.768;8.636;2022-08-01T07:31:39;24.00;90.30
59651;DHT22;45954;49.768;8.636;2022-08-01T07:34:05;23.80;90.40
59651;DHT22;45954;49.768;8.636;2022-08-01T07:36:31;23.70;90.90
59651;DHT22;45954;49.768;8.636;2022-08-01T07:38:57;24.00;90.60
59651;DHT22;45954;49.768;8.636;2022-08-01T07:41:23;24.20;90.10
59651;DHT22;45954;49.768;8.636;2022-08-01T07:43:49;24.10;90.20
59651;DHT22;45954;49.768;8.636;2022-08-01T07:46:15;24.10;90.10
59651;DHT22;45954;49.768;8.636;2022-08-01T07:48:42;24.20;90.00
59651;DHT22;45954;49.768;8.636;2022-08-01T07:51:08;24.40;90.10
59651;DHT22;45954;49.768;8.636;2022-08-01T07:53:36;24.50;89.50
59651;DHT22;45954;49.768;8.636;2022-08-01T07:56:02;24.20;90.00
59651;DHT22;45954;49.768;8.636;2022-08-01T07:58:31;24.00;90.00
59651;DHT22;45954;49.768;8.636;2022-08-01T08:00:58;24.00;90.50
59651;DHT22;45954;49.768;8.636;2022-08-01T08:03:24;24.20;90.20
59651;DHT22;45954;49.768;8.636;2022-08-01T08:05:50;24.40;89.60
59651;DHT22;45954;49.768;8.636;2022-08-01T08:08:16;24.60;89.60
59651;DHT22;45954;49.768;8.636;2022-08-01T08:10:43;24.40;89.70
59651;DHT22;45954;49.768;8.636;2022-08-01T08:13:10;24.60;89.80
59651;DHT22;45954;49.768;8.636;2022-08-01T08:15:36;24.90;89.40
59651;DHT22;45954;49.768;8.636;2022-08-01T08:18:03;25.20;89.00
59651;DHT22;45954;49.768;8.636;2022-08-01T08:20:29;25.10;87.10
59651;DHT22;45954;49.768;8.636;2022-08-01T08:22:56;25.10;88.10
59651;DHT22;45954;49.768;8.636;2022-08-01T08:25:25;25.00;87.60
59651;DHT22;45954;49.768;8.636;2022-08-01T08:27:52;25.10;87.50
59651;DHT22;45954;49.768;8.636;2022-08-01T08:30:18;25.20;87.70
59651;DHT22;45954;49.768;8.636;2022-08-01T08:32:44;25.20;87.10
59651;DHT22;45954;49.768;8.636;2022-08-01T08:35:11;25.30;87.20
59651;DHT22;45954;49.768;8.636;2022-08-01T08:37:38;25.20;86.40
59651;DHT22;45954;49.768;8.636;2022-08-01T08:40:05;25.00;86.40
59651;DHT22;45954;49.768;8.636;2022-08-01T08:42:32;24.60;87.90
59651;DHT22;45954;49.768;8.636;2022-08-01T08:44:58;24.60;87.70
59651;DHT22;45954;49.768;8.636;2022-08-01T08:47:25;25.00;87.30
59651;DHT22;45954;49.768;8.636;2022-08-01T08:49:55;25.00;86.60
59651;DHT22;45954;49.768;8.636;2022-08-01T08:52:22;25.40;87.20
59651;DHT22;45954;49.768;8.636;2022-08-01T08:54:50;25.20;86.20
59651;DHT22;45954;49.768;8.636;2022-08-01T08:57:20;25.30;86.70
59651;DHT22;45954;49.768;8.636;2022-08-01T08:59:47;25.40;86.30
59651;DHT22;45954;49.768;8.636;2022-08-01T09:02:13;25.20;86.20
59651;DHT22;45954;49.768;8.636;2022-08-01T09:04:40;25.10;86.30
59651;DHT22;45954;49.768;8.636;2022-08-01T09:07:07;25.40;86.80
59651;DHT22;45954;49.768;8.636;2022-08-01T09:09:34;25.70;85.30
59651;DHT22;45954;49.768;8.636;2022-08-01T09:12:00;25.90;85.10
59651;DHT22;45954;49.768;8.636;2022-08-01T09:14:26;25.90;85.30
59651;DHT22;45954;49.768;8.636;2022-08-01T09:17:09;25.90;84.90
59651;DHT22;45954;49.768;8.636;2022-08-01T09:19:44;26.00;84.70
59651;DHT22;45954;49.768;8.636;2022-08-01T09:22:15;26.00;84.20
59651;DHT22;45954;49.768;8.636;2022-08-01T09:27:24;26.60;83.20
59651;DHT22;45954;49.768;8.636;2022-08-01T09:29:54;26.10;82.70
59651;DHT22;45954;49.768;8.636;2022-08-01T09:32:35;25.80;83.00
59651;DHT22;45954;49.768;8.636;2022-08-01T09:35:24;26.30;84.20
59651;DHT22;45954;49.768;8.636;2022-08-01T09:37:51;26.20;82.50
59651;DHT22;45954;49.768;8.636;2022-08-01T09:40:17;25.60;83.40
59651;DHT22;45954;49.768;8.636;2022-08-01T09:42:43;25.60;84.30
59651;DHT22;45954;49.768;8.636;2022-08-01T09:45:33;25.30;84.70
59651;DHT22;45954;49.768;8.636;2022-08-01T09:48:08;25.40;84.40
59651;DHT22;45954;49.768;8.636;2022-08-01T09:50:46;25.50;84.10
59651;DHT22;45954;49.768;8.636;2022-08-01T09:53:14;25.60;83.60
59651;DHT22;45954;49.768;8.636;2022-08-01T09:55:41;25.30;84.10
59651;DHT22;45954;49.768;8.636;2022-08-01T09:58:08;25.40;84.00
59651;DHT22;45954;49.768;8.636;2022-08-01T10:00:36;25.90;84.90
59651;DHT22;45954;49.768;8.636;2022-08-01T10:03:22;26.30;82.80
59651;DHT22;45954;49.768;8.636;2022-08-01T10:05:50;26.20;82.70
59651;DHT22;45954;49.768;8.636;2022-08-01T10:08:17;26.20;83.00
59651;DHT22;45954;49.768;8.636;2022-08-01T10:11:04;26.40;83.00
59651;DHT22;45954;49.768;8.636;2022-08-01T10:13:33;26.50;81.90
59651;DHT22;45954;49.768;8.636;2022-08-01T10:16:00;26.50;81.10
59651;DHT22;45954;49.768;8.636;2022-08-01T10:18:29;26.20;82.80
59651;DHT22;45954;49.768;8.636;2022-08-01T10:20:59;26.50;80.80
59651;DHT22;45954;49.768;8.636;2022-08-01T10:23:27;26.80;80.70
59651;DHT22;45954;49.768;8.636;2022-08-01T10:25:58;27.10;79.70
59651;DHT22;45954;49.768;8.636;2022-08-01T10:28:30;27.50;80.90
59651;DHT22;45954;49.768;8.636;2022-08-01T10:30:57;27.80;79.20
59651;DHT22;45954;49.768;8.636;2022-08-01T10:33:24;27.30;79.40
59651;DHT22;45954;49.768;8.636;2022-08-01T10:35:51;26.70;80.00
59651;DHT22;45954;49.768;8.636;2022-08-01T10:38:17;27.00;80.00
59651;DHT22;45954;49.768;8.636;2022-08-01T10:40:44;27.20;79.90
59651;DHT22;45954;49.768;8.636;2022-08-01T10:43:11;26.60;80.70
59651;DHT22;45954;49.768;8.636;2022-08-01T10:45:40;25.80;81.80
59651;DHT22;45954;49.768;8.636;2022-08-01T10:48:14;26.10;81.60
59651;DHT22;45954;49.768;8.636;2022-08-01T10:50:55;26.40;81.90
59651;DHT22;45954;49.768;8.636;2022-08-01T10:53:25;26.80;80.80
59651;DHT22;45954;49.768;8.636;2022-08-01T10:55:59;27.00;80.10
59651;DHT22;45954;49.768;8.636;2022-08-01T10:58:36;27.10;80.70
59651;DHT22;45954;49.768;8.636;2022-08-01T11:01:25;27.40;79.80
59651;DHT22;45954;49.768;8.636;2022-08-01T11:04:09;27.90;78.70
59651;DHT22;45954;49.768;8.636;2022-08-01T11:09:42;27.60;77.60
59651;DHT22;45954;49.768;8.636;2022-08-01T11:12:17;27.10;79.00
59651;DHT22;45954;49.768;8.636;2022-08-01T11:17:32;26.50;80.10
59651;DHT22;45954;49.768;8.636;2022-08-01T11:20:23;26.60;79.20
59651;DHT22;45954;49.768;8.636;2022-08-01T11:30:48;26.50;78.90
59651;DHT22;45954;49.768;8.636;2022-08-01T11:38:37;26.60;79.90
59651;DHT22;45954;49.768;8.636;2022-08-01T11:44:11;26.50;80.10
59651;DHT22;45954;49.768;8.636;2022-08-01T11:49:55;26.20;79.80
59651;DHT22;45954;49.768;8.636;2022-08-01T11:52:27;26.10;80.30
59651;DHT22;45954;49.768;8.636;2022-08-01T11:55:07;26.10;80.00
59651;DHT22;45954;49.768;8.636;2022-08-01T11:57:34;25.90;80.10
59651;DHT22;45954;49.768;8.636;2022-08-01T12:00:18;26.20;80.40
59651;DHT22;45954;49.768;8.636;2022-08-01T12:02:46;26.50;80.50
59651;DHT22;45954;49.768;8.636;2022-08-01T12:05:14;26.70;80.10
59651;DHT22;45954;49.768;8.636;2022-08-01T12:07:44;26.80;79.70
59651;DHT22;45954;49.768;8.636;2022-08-01T12:10:14;26.80;80.30
59651;DHT22;45954;49.768;8.636;2022-08-01T12:15:24;27.40;79.00
59651;DHT22;45954;49.768;8.636;2022-08-01T12:17:56;27.70;77.20
59651;DHT22;45954;49.768;8.636;2022-08-01T12:20:35;27.90;76.70
59651;DHT22;45954;49.768;8.636;2022-08-01T12:23:05;27.60;76.40
59651;DHT22;45954;49.768;8.636;2022-08-01T12:25:39;27.70;75.70
59651;DHT22;45954;49.768;8.636;2022-08-01T12:28:08;28.00;76.80
59651;DHT22;45954;49.768;8.636;2022-08-01T12:30:36;28.40;74.40
59651;DHT22;45954;49.768;8.636;2022-08-01T12:33:09;28.30;74.80
59651;DHT22;45954;49.768;8.636;2022-08-01T12:35:38;28.50;75.00
59651;DHT22;45954;49.768;8.636;2022-08-01T12:38:07;28.80;74.40
59651;DHT22;45954;49.768;8.636;2022-08-01T12:40:42;28.60;73.00
59651;DHT22;45954;49.768;8.636;2022-08-01T12:43:10;28.40;72.30
59651;DHT22;45954;49.768;8.636;2022-08-01T12:45:44;28.10;73.80
59651;DHT22;45954;49.768;8.636;2022-08-01T12:48:15;27.80;74.80
59651;DHT22;45954;49.768;8.636;2022-08-01T12:50:45;28.20;75.00
59651;DHT22;45954;49.768;8.636;2022-08-01T12:53:13;28.20;74.60
59651;DHT22;45954;49.768;8.636;2022-08-01T12:55:51;28.30;73.90
59651;DHT22;45954;49.768;8.636;2022-08-01T12:58:19;28.10;74.70
59651;DHT22;45954;49.768;8.636;2022-08-01T13:00:49;28.10;74.40
59651;DHT22;45954;49.768;8.636;2022-08-01T13:03:21;28.40;73.40
59651;DHT22;45954;49.768;8.636;2022-08-01T13:05:52;28.10;73.10
59651;DHT22;45954;49.768;8.636;2022-08-01T13:08:31;28.40;74.50
59651;DHT22;45954;49.768;8.636;2022-08-01T13:11:07;28.90;74.20
59651;DHT22;45954;49.768;8.636;2022-08-01T13:13:39;28.50;71.80
59651;DHT22;45954;49.768;8.636;2022-08-01T13:16:10;28.50;72.90
59651;DHT22;45954;49.768;8.636;2022-08-01T13:18:37;29.00;72.50
59651;DHT22;45954;49.768;8.636;2022-08-01T13:23:42;29.30;72.20
59651;DHT22;45954;49.768;8.636;2022-08-01T13:26:50;29.90;70.90
59651;DHT22;45954;49.768;8.636;2022-08-01T13:29:19;30.10;70.10
59651;DHT22;45954;49.768;8.636;2022-08-01T13:31:47;29.70;69.00
59651;DHT22;45954;49.768;8.636;2022-08-01T13:34:13;29.50;69.10
59651;DHT22;45954;49.768;8.636;2022-08-01T13:36:40;29.20;70.30
59651;DHT22;45954;49.768;8.636;2022-08-01T13:39:06;29.20;70.90
59651;DHT22;45954;49.768;8.636;2022-08-01T13:41:52;28.80;69.40
59651;DHT22;45954;49.768;8.636;2022-08-01T13:44:18;28.40;70.60
59651;DHT22;45954;49.768;8.636;2022-08-01T13:46:45;28.20;71.90
59651;DHT22;45954;49.768;8.636;2022-08-01T13:49:13;28.40;71.50
59651;DHT22;45954;49.768;8.636;2022-08-01T13:51:39;28.30;71.60
59651;DHT22;45954;49.768;8.636;2022-08-01T13:54:06;28.80;71.90
59651;DHT22;45954;49.768;8.636;2022-08-01T13:56:33;29.00;71.30
59651;DHT22;45954;49.768;8.636;2022-08-01T13:58:59;29.00;71.60
59651;DHT22;45954;49.768;8.636;2022-08-01T14:01:26;29.20;70.70
59651;DHT22;45954;49.768;8.636;2022-08-01T14:03:51;29.00;71.10
59651;DHT22;45954;49.768;8.636;2022-08-01T14:06:18;29.10;69.90
59651;DHT22;45954;49.768;8.636;2022-08-01T14:08:46;28.70;71.00
59651;DHT22;45954;49.768;8.636;2022-08-01T14:11:12;29.50;70.60
59651;DHT22;45954;49.768;8.636;2022-08-01T14:13:38;29.80;70.20
59651;DHT22;45954;49.768;8.636;2022-08-01T14:16:06;30.10;69.10
59651;DHT22;45954;49.768;8.636;2022-08-01T14:18:33;29.20;69.70
59651;DHT22;45954;49.768;8.636;2022-08-01T14:21:00;29.50;70.20
59651;DHT22;45954;49.768;8.636;2022-08-01T14:23:26;29.80;69.50
59651;DHT22;45954;49.768;8.636;2022-08-01T14:25:53;30.50;68.40
59651;DHT22;45954;49.768;8.636;2022-08-01T14:28:19;30.80;68.90
59651;DHT22;45954;49.768;8.636;2022-08-01T14:30:46;31.20;69.10
59651;DHT22;45954;49.768;8.636;2022-08-01T14:33:13;31.20;66.60
59651;DHT22;45954;49.768;8.636;2022-08-01T14:35:40;31.00;67.70
59651;DHT22;45954;49.768;8.636;2022-08-01T14:38:06;30.80;67.40
59651;DHT22;45954;49.768;8.636;2022-08-01T14:40:33;30.70;67.70
59651;DHT22;45954;49.768;8.636;2022-08-01T14:43:00;30.40;67.00
59651;DHT22;45954;49.768;8.636;2022-08-01T14:45:27;30.50;68.40
59651;DHT22;45954;49.768;8.636;2022-08-01T14:47:53;30.30;67.00
59651;DHT22;45954;49.768;8.636;2022-08-01T14:50:19;29.70;67.50
59651;DHT22;45954;49.768;8.636;2022-08-01T14:52:45;29.60;68.70
59651;DHT22;45954;49.768;8.636;2022-08-01T14:55:12;29.50;68.80
59651;DHT22;45954;49.768;8.636;2022-08-01T14:57:39;29.50;68.70
59651;DHT22;45954;49.768;8.636;2022-08-01T15:00:09;29.60;68.90
59651;DHT22;45954;49.768;8.636;2022-08-01T15:02:37;29.80;67.90
59651;DHT22;45954;49.768;8.636;2022-08-01T15:05:03;29.80;69.00
59651;DHT22;45954;49.768;8.636;2022-08-01T15:07:29;30.00;70.00
59651;DHT22;45954;49.768;8.636;2022-08-01T15:09:55;30.10;69.50
59651;DHT22;45954;49.768;8.636;2022-08-01T15:12:21;30.00;67.50
59651;DHT22;45954;49.768;8.636;2022-08-01T15:14:47;29.90;69.00
59651;DHT22;45954;49.768;8.636;2022-08-01T15:17:20;30.00;67.90
59651;DHT22;45954;49.768;8.636;2022-08-01T15:19:48;29.90;66.90
59651;DHT22;45954;49.768;8.636;2022-08-01T15:22:15;29.90;67.10
59651;DHT22;45954;49.768;8.636;2022-08-01T15:24:42;29.80;67.40
59651;DHT22;45954;49.768;8.636;2022-08-01T15:27:09;29.80;67.00
59651;DHT22;45954;49.768;8.636;2022-08-01T15:29:36;29.80;67.50
59651;DHT22;45954;49.768;8.636;2022-08-01T15:32:04;29.60;67.80
59651;DHT22;45954;49.768;8.636;2022-08-01T15:34:32;29.50;68.90
59651;DHT22;45954;49.768;8.636;2022-08-01T15:37:02;29.70;68.20
59651;DHT22;45954;49.768;8.636;2022-08-01T15:39:30;29.20;68.00
59651;DHT22;45954;49.768;8.636;2022-08-01T15:42:05;29.30;68.60
59651;DHT22;45954;49.768;8.636;2022-08-01T15:44:32;29.40;66.60
59651;DHT22;45954;49.768;8.636;2022-08-01T15:47:00;29.40;66.80
59651;DHT22;45954;49.768;8.636;2022-08-01T15:49:26;28.90;67.30
59651;DHT22;45954;49.768;8.636;2022-08-01T15:51:53;28.60;69.70
59651;DHT22;45954;49.768;8.636;2022-08-01T15:54:19;28.10;72.00
59651;DHT22;45954;49.768;8.636;2022-08-01T15:56:45;28.10;73.10
59651;DHT22;45954;49.768;8.636;2022-08-01T15:59:12;27.70;74.90
59651;DHT22;45954;49.768;8.636;2022-08-01T16:01:38;27.50;75.80
59651;DHT22;45954;49.768;8.636;2022-08-01T16:04:05;27.40;76.50
59651;DHT22;45954;49.768;8.636;2022-08-01T16:06:32;27.40;76.90
59651;DHT22;45954;49.768;8.636;2022-08-01T16:08:58;27.50;76.60
59651;DHT22;45954;49.768;8.636;2022-08-01T16:11:25;27.50;77.10
59651;DHT22;45954;49.768;8.636;2022-08-01T16:13:55;27.50;77.40
59651;DHT22;45954;49.768;8.636;2022-08-01T16:16:21;27.50;77.70
59651;DHT22;45954;49.768;8.636;2022-08-01T16:18:48;27.20;77.80
59651;DHT22;45954;49.768;8.636;2022-08-01T16:21:15;27.10;78.00
59651;DHT22;45954;49.768;8.636;2022-08-01T16:23:42;26.90;77.70
59651;DHT22;45954;49.768;8.636;2022-08-01T16:26:08;26.70;77.80